sensor_id;sensor_type;location;lat;lon;timestamp;P1;durP1;ratioP1;P2;durP2;ratioP2
78925;SDS011;68321;51.276;7.208;2023-03-23T00:01:46;5.18;;;2.92;;
78925;SDS011;68321;51.276;7.208;2023-03-23T00:04:14;5.43;;;2.17;;
78925;SDS011;68321;51.276;7.208;2023-03-23T00:06:40;3.80;;;1.92;;
78925;SDS011;68321;51.276;7.208;2023-03-23T00:09:05;8.60;;;1.93;;
78925;SDS011;68321;51.276;7.208;2023-03-23T00:11:32;3.67;;;2.00;;
78925;SDS011;68321;51.276;7.208;2023-03-23T00:13:59;2.97;;;1.92;;
78925;SDS011;68321;51.276;7.208;2023-03-23T00:16:26;4.45;;;2.10;;
78925;SDS011;68321;51.276;7.208;2023-03-23T00:19:01;3.80;;;2.15;;
78925;SDS011;68321;51.276;7.208;2023-03-23T00:21:29;5.45;;;2.42;;
78925;SDS011;68321;51.276;7.208;2023-03-23T00:24:06;5.25;;;2.38;;
78925;SDS011;68321;51.276;7.208;2023-03-23T00:26:35;5.43;;;2.20;;
78925;SDS011;68321;51.276;7.208;2023-03-23T00:29:05;4.05;;;2.38;;
78925;SDS011;68321;51.276;7.208;2023-03-23T00:31:32;3.67;;;2.05;;
78925;SDS011;68321;51.276;7.208;2023-03-23T00:34:00;2.72;;;1.70;;
78925;SDS011;68321;51.276;7.208;2023-03-23T00:36:26;6.95;;;2.28;;
78925;SDS011;68321;51.276;7.208;2023-03-23T00:38:53;3.20;;;1.77;;
78925;SDS011;68321;51.276;7.208;2023-03-23T00:41:22;3.75;;;2.25;;
78925;SDS011;68321;51.276;7.208;2023-03-23T00:43:48;3.15;;;2.38;;
78925;SDS011;68321;51.276;7.208;2023-03-23T00:46:13;3.20;;;1.93;;
78925;SDS011;68321;51.276;7.208;2023-03-23T00:48:39;5.13;;;2.05;;
78925;SDS011;68321;51.276;7.208;2023-03-23T00:51:09;2.58;;;1.38;;
78925;SDS011;68321;51.276;7.208;2023-03-23T00:53:35;3.22;;;2.22;;
78925;SDS011;68321;51.276;7.208;2023-03-23T00:56:01;2.70;;;1.70;;
78925;SDS011;68321;51.276;7.208;2023-03-23T00:58:26;2.90;;;1.60;;
78925;SDS011;68321;51.276;7.208;2023-03-23T01:00:51;4.87;;;2.30;;
78925;SDS011;68321;51.276;7.208;2023-03-23T01:03:17;3.47;;;1.90;;
78925;SDS011;68321;51.276;7.208;2023-03-23T01:05:43;3.55;;;1.90;;
78925;SDS011;68321;51.276;7.208;2023-03-23T01:08:12;5.22;;;2.10;;
78925;SDS011;68321;51.276;7.208;2023-03-23T01:10:38;3.88;;;2.10;;
78925;SDS011;68321;51.276;7.208;2023-03-23T01:13:04;5.32;;;2.15;;
78925;SDS011;68321;51.276;7.208;2023-03-23T01:15:30;3.30;;;2.05;;
78925;SDS011;68321;51.276;7.208;2023-03-23T01:17:55;5.30;;;2.08;;
78925;SDS011;68321;51.276;7.208;2023-03-23T01:20:21;4.85;;;1.73;;
78925;SDS011;68321;51.276;7.208;2023-03-23T01:22:47;3.90;;;1.60;;
78925;SDS011;68321;51.276;7.208;2023-03-23T01:25:13;4.07;;;2.13;;
78925;SDS011;68321;51.276;7.208;2023-03-23T01:27:38;3.92;;;2.08;;
78925;SDS011;68321;51.276;7.208;2023-03-23T01:30:05;2.90;;;1.80;;
78925;SDS011;68321;51.276;7.208;2023-03-23T01:32:31;3.60;;;1.92;;
78925;SDS011;68321;51.276;7.208;2023-03-23T01:34:57;4.07;;;1.95;;
78925;SDS011;68321;51.276;7.208;2023-03-23T01:37:22;3.65;;;1.58;;
78925;SDS011;68321;51.276;7.208;2023-03-23T01:39:51;2.50;;;1.42;;
78925;SDS011;68321;51.276;7.208;2023-03-23T01:42:18;3.40;;;1.88;;
78925;SDS011;68321;51.276;7.208;2023-03-23T01:47:11;2.55;;;1.60;;
78925;SDS011;68321;51.276;7.208;2023-03-23T01:49:37;5.82;;;1.98;;
78925;SDS011;68321;51.276;7.208;2023-03-23T01:52:08;5.45;;;1.83;;
78925;SDS011;68321;51.276;7.208;2023-03-23T01:54:42;2.65;;;1.73;;
78925;SDS011;68321;51.276;7.208;2023-03-23T01:57:10;4.15;;;1.85;;
78925;SDS011;68321;51.276;7.208;2023-03-23T01:59:38;4.50;;;1.95;;
78925;SDS011;68321;51.276;7.208;2023-03-23T02:02:05;3.95;;;2.00;;
78925;SDS011;68321;51.276;7.208;2023-03-23T02:04:30;3.20;;;1.90;;
78925;SDS011;68321;51.276;7.208;2023-03-23T02:06:56;4.70;;;2.80;;
78925;SDS011;68321;51.276;7.208;2023-03-23T02:09:23;7.13;;;2.20;;
78925;SDS011;68321;51.276;7.208;2023-03-23T02:11:50;4.40;;;1.92;;
78925;SDS011;68321;51.276;7.208;2023-03-23T02:14:15;5.97;;;1.75;;
78925;SDS011;68321;51.276;7.208;2023-03-23T02:17:02;3.08;;;1.88;;
78925;SDS011;68321;51.276;7.208;2023-03-23T02:19:55;6.28;;;2.47;;
78925;SDS011;68321;51.276;7.208;2023-03-23T02:28:16;4.13;;;1.88;;
78925;SDS011;68321;51.276;7.208;2023-03-23T02:31:00;2.80;;;1.70;;
78925;SDS011;68321;51.276;7.208;2023-03-23T02:33:39;6.18;;;1.83;;
78925;SDS011;68321;51.276;7.208;2023-03-23T02:36:14;4.72;;;2.33;;
78925;SDS011;68321;51.276;7.208;2023-03-23T02:41:28;2.60;;;1.77;;
78925;SDS011;68321;51.276;7.208;2023-03-23T02:43:56;3.67;;;2.15;;
78925;SDS011;68321;51.276;7.208;2023-03-23T02:46:21;3.03;;;1.77;;
78925;SDS011;68321;51.276;7.208;2023-03-23T02:48:47;4.18;;;2.00;;
78925;SDS011;68321;51.276;7.208;2023-03-23T02:51:16;4.05;;;2.17;;
78925;SDS011;68321;51.276;7.208;2023-03-23T02:53:43;3.00;;;1.60;;
78925;SDS011;68321;51.276;7.208;2023-03-23T02:56:08;3.70;;;2.22;;
78925;SDS011;68321;51.276;7.208;2023-03-23T02:58:35;3.42;;;2.17;;
78925;SDS011;68321;51.276;7.208;2023-03-23T03:01:14;3.92;;;2.13;;
78925;SDS011;68321;51.276;7.208;2023-03-23T03:04:35;3.47;;;2.28;;
78925;SDS011;68321;51.276;7.208;2023-03-23T03:09:56;3.05;;;1.90;;
78925;SDS011;68321;51.276;7.208;2023-03-23T03:17:42;5.68;;;1.88;;
78925;SDS011;68321;51.276;7.208;2023-03-23T03:20:11;3.92;;;1.90;;
78925;SDS011;68321;51.276;7.208;2023-03-23T03:22:39;4.45;;;1.95;;
78925;SDS011;68321;51.276;7.208;2023-03-23T03:25:10;3.33;;;1.65;;
78925;SDS011;68321;51.276;7.208;2023-03-23T03:27:38;4.45;;;2.00;;
78925;SDS011;68321;51.276;7.208;2023-03-23T03:30:05;5.20;;;2.13;;
78925;SDS011;68321;51.276;7.208;2023-03-23T03:32:36;3.17;;;1.88;;
78925;SDS011;68321;51.276;7.208;2023-03-23T03:35:05;4.47;;;2.05;;
78925;SDS011;68321;51.276;7.208;2023-03-23T03:37:37;2.75;;;2.08;;
78925;SDS011;68321;51.276;7.208;2023-03-23T03:40:05;3.25;;;1.45;;
78925;SDS011;68321;51.276;7.208;2023-03-23T03:42:37;2.85;;;1.80;;
78925;SDS011;68321;51.276;7.208;2023-03-23T03:45:03;2.95;;;1.83;;
78925;SDS011;68321;51.276;7.208;2023-03-23T03:47:29;4.90;;;2.55;;
78925;SDS011;68321;51.276;7.208;2023-03-23T03:49:54;3.93;;;1.80;;
78925;SDS011;68321;51.276;7.208;2023-03-23T03:52:20;4.53;;;2.30;;
78925;SDS011;68321;51.276;7.208;2023-03-23T03:54:45;5.43;;;2.00;;
78925;SDS011;68321;51.276;7.208;2023-03-23T03:57:12;2.00;;;1.30;;
78925;SDS011;68321;51.276;7.208;2023-03-23T03:59:37;3.90;;;2.45;;
78925;SDS011;68321;51.276;7.208;2023-03-23T04:02:02;2.20;;;1.20;;
78925;SDS011;68321;51.276;7.208;2023-03-23T04:04:29;3.60;;;2.00;;
78925;SDS011;68321;51.276;7.208;2023-03-23T04:06:54;2.88;;;1.45;;
78925;SDS011;68321;51.276;7.208;2023-03-23T04:09:20;2.95;;;2.00;;
78925;SDS011;68321;51.276;7.208;2023-03-23T04:11:46;7.15;;;2.20;;
78925;SDS011;68321;51.276;7.208;2023-03-23T04:14:11;2.97;;;1.73;;
78925;SDS011;68321;51.276;7.208;2023-03-23T04:16:37;3.28;;;1.85;;
78925;SDS011;68321;51.276;7.208;2023-03-23T04:19:02;5.43;;;2.05;;
78925;SDS011;68321;51.276;7.208;2023-03-23T04:21:28;3.20;;;1.85;;
78925;SDS011;68321;51.276;7.208;2023-03-23T04:23:55;2.55;;;1.52;;
78925;SDS011;68321;51.276;7.208;2023-03-23T04:26:23;5.28;;;1.60;;
78925;SDS011;68321;51.276;7.208;2023-03-23T04:28:50;2.88;;;1.70;;
78925;SDS011;68321;51.276;7.208;2023-03-23T04:31:15;3.10;;;1.85;;
78925;SDS011;68321;51.276;7.208;2023-03-23T04:33:40;2.87;;;1.53;;
78925;SDS011;68321;51.276;7.208;2023-03-23T04:36:06;2.95;;;1.67;;
78925;SDS011;68321;51.276;7.208;2023-03-23T04:38:32;3.13;;;1.77;;
78925;SDS011;68321;51.276;7.208;2023-03-23T04:40:59;3.72;;;2.17;;
78925;SDS011;68321;51.276;7.208;2023-03-23T04:43:27;3.20;;;1.65;;
78925;SDS011;68321;51.276;7.208;2023-03-23T04:45:53;2.45;;;1.15;;
78925;SDS011;68321;51.276;7.208;2023-03-23T04:48:21;2.65;;;1.52;;
78925;SDS011;68321;51.276;7.208;2023-03-23T04:50:51;2.33;;;1.58;;
78925;SDS011;68321;51.276;7.208;2023-03-23T04:53:16;3.88;;;1.83;;
78925;SDS011;68321;51.276;7.208;2023-03-23T04:55:43;2.58;;;1.42;;
78925;SDS011;68321;51.276;7.208;2023-03-23T04:58:08;3.05;;;1.80;;
78925;SDS011;68321;51.276;7.208;2023-03-23T05:00:35;3.33;;;1.48;;
78925;SDS011;68321;51.276;7.208;2023-03-23T05:03:00;2.55;;;1.75;;
78925;SDS011;68321;51.276;7.208;2023-03-23T05:05:26;3.25;;;1.42;;
78925;SDS011;68321;51.276;7.208;2023-03-23T05:07:54;3.30;;;1.67;;
78925;SDS011;68321;51.276;7.208;2023-03-23T05:10:19;3.40;;;1.48;;
78925;SDS011;68321;51.276;7.208;2023-03-23T05:12:45;2.65;;;1.65;;
78925;SDS011;68321;51.276;7.208;2023-03-23T05:15:11;3.88;;;1.98;;
78925;SDS011;68321;51.276;7.208;2023-03-23T05:17:37;2.95;;;1.77;;
78925;SDS011;68321;51.276;7.208;2023-03-23T05:20:04;2.03;;;1.38;;
78925;SDS011;68321;51.276;7.208;2023-03-23T05:22:33;2.97;;;1.77;;
78925;SDS011;68321;51.276;7.208;2023-03-23T05:24:59;3.47;;;1.60;;
78925;SDS011;68321;51.276;7.208;2023-03-23T05:27:27;3.40;;;2.17;;
78925;SDS011;68321;51.276;7.208;2023-03-23T05:29:52;2.92;;;1.60;;
78925;SDS011;68321;51.276;7.208;2023-03-23T05:32:18;2.97;;;1.75;;
78925;SDS011;68321;51.276;7.208;2023-03-23T05:34:44;2.90;;;1.63;;
78925;SDS011;68321;51.276;7.208;2023-03-23T05:37:09;3.85;;;1.95;;
78925;SDS011;68321;51.276;7.208;2023-03-23T05:39:36;3.05;;;1.63;;
78925;SDS011;68321;51.276;7.208;2023-03-23T05:42:02;2.07;;;1.60;;
78925;SDS011;68321;51.276;7.208;2023-03-23T05:44:29;2.67;;;1.65;;
78925;SDS011;68321;51.276;7.208;2023-03-23T05:46:54;3.42;;;2.10;;
78925;SDS011;68321;51.276;7.208;2023-03-23T05:49:20;5.13;;;2.20;;
78925;SDS011;68321;51.276;7.208;2023-03-23T05:51:45;3.05;;;1.73;;
78925;SDS011;68321;51.276;7.208;2023-03-23T05:54:11;3.72;;;1.60;;
78925;SDS011;68321;51.276;7.208;2023-03-23T05:56:37;3.83;;;1.98;;
78925;SDS011;68321;51.276;7.208;2023-03-23T05:59:03;2.10;;;1.33;;
78925;SDS011;68321;51.276;7.208;2023-03-23T06:01:28;3.10;;;2.03;;
78925;SDS011;68321;51.276;7.208;2023-03-23T06:03:54;4.45;;;1.85;;
78925;SDS011;68321;51.276;7.208;2023-03-23T06:06:24;3.72;;;1.98;;
78925;SDS011;68321;51.276;7.208;2023-03-23T06:08:50;3.53;;;1.70;;
78925;SDS011;68321;51.276;7.208;2023-03-23T06:11:16;2.50;;;1.60;;
78925;SDS011;68321;51.276;7.208;2023-03-23T06:13:42;3.35;;;2.50;;
78925;SDS011;68321;51.276;7.208;2023-03-23T06:16:08;3.80;;;2.25;;
78925;SDS011;68321;51.276;7.208;2023-03-23T06:18:33;4.80;;;2.33;;
78925;SDS011;68321;51.276;7.208;2023-03-23T06:21:01;2.85;;;1.83;;
78925;SDS011;68321;51.276;7.208;2023-03-23T06:23:27;5.30;;;2.30;;
78925;SDS011;68321;51.276;7.208;2023-03-23T06:25:54;3.25;;;1.70;;
78925;SDS011;68321;51.276;7.208;2023-03-23T06:28:22;4.07;;;1.88;;
78925;SDS011;68321;51.276;7.208;2023-03-23T06:30:47;2.25;;;1.50;;
78925;SDS011;68321;51.276;7.208;2023-03-23T06:33:12;3.13;;;1.80;;
78925;SDS011;68321;51.276;7.208;2023-03-23T06:35:38;3.25;;;1.63;;
78925;SDS011;68321;51.276;7.208;2023-03-23T06:38:03;4.47;;;2.13;;
78925;SDS011;68321;51.276;7.208;2023-03-23T06:40:29;4.30;;;2.35;;
78925;SDS011;68321;51.276;7.208;2023-03-23T06:42:56;4.32;;;2.22;;
78925;SDS011;68321;51.276;7.208;2023-03-23T06:45:23;4.53;;;2.20;;
78925;SDS011;68321;51.276;7.208;2023-03-23T06:47:49;4.82;;;1.98;;
78925;SDS011;68321;51.276;7.208;2023-03-23T06:50:15;4.60;;;2.22;;
78925;SDS011;68321;51.276;7.208;2023-03-23T06:52:44;3.40;;;1.80;;
78925;SDS011;68321;51.276;7.208;2023-03-23T06:55:11;2.92;;;1.58;;
78925;SDS011;68321;51.276;7.208;2023-03-23T06:57:38;6.35;;;2.03;;
78925;SDS011;68321;51.276;7.208;2023-03-23T07:00:03;3.97;;;2.40;;
78925;SDS011;68321;51.276;7.208;2023-03-23T07:02:31;3.53;;;2.05;;
78925;SDS011;68321;51.276;7.208;2023-03-23T07:04:56;4.32;;;1.95;;
78925;SDS011;68321;51.276;7.208;2023-03-23T07:07:22;3.10;;;1.63;;
78925;SDS011;68321;51.276;7.208;2023-03-23T07:09:47;4.20;;;1.83;;
78925;SDS011;68321;51.276;7.208;2023-03-23T07:12:13;6.85;;;2.33;;
78925;SDS011;68321;51.276;7.208;2023-03-23T07:14:39;7.30;;;2.50;;
78925;SDS011;68321;51.276;7.208;2023-03-23T07:17:04;4.20;;;2.03;;
78925;SDS011;68321;51.276;7.208;2023-03-23T07:19:30;7.50;;;2.60;;
78925;SDS011;68321;51.276;7.208;2023-03-23T07:21:56;8.18;;;2.35;;
78925;SDS011;68321;51.276;7.208;2023-03-23T07:24:22;3.67;;;1.98;;
78925;SDS011;68321;51.276;7.208;2023-03-23T07:26:47;4.22;;;1.95;;
78925;SDS011;68321;51.276;7.208;2023-03-23T07:29:12;3.73;;;1.60;;
78925;SDS011;68321;51.276;7.208;2023-03-23T07:31:38;5.97;;;1.70;;
78925;SDS011;68321;51.276;7.208;2023-03-23T07:34:03;3.40;;;1.70;;
78925;SDS011;68321;51.276;7.208;2023-03-23T07:36:29;2.95;;;1.73;;
78925;SDS011;68321;51.276;7.208;2023-03-23T07:38:54;3.40;;;1.92;;
78925;SDS011;68321;51.276;7.208;2023-03-23T07:41:20;2.92;;;1.80;;
78925;SDS011;68321;51.276;7.208;2023-03-23T07:43:45;11.68;;;5.03;;
78925;SDS011;68321;51.276;7.208;2023-03-23T07:46:11;7.05;;;2.40;;
78925;SDS011;68321;51.276;7.208;2023-03-23T07:48:37;3.63;;;1.95;;
78925;SDS011;68321;51.276;7.208;2023-03-23T07:51:03;4.43;;;1.70;;
78925;SDS011;68321;51.276;7.208;2023-03-23T07:53:28;3.92;;;1.85;;
78925;SDS011;68321;51.276;7.208;2023-03-23T07:55:54;4.18;;;1.75;;
78925;SDS011;68321;51.276;7.208;2023-03-23T07:58:19;5.60;;;1.88;;
78925;SDS011;68321;51.276;7.208;2023-03-23T08:00:45;4.05;;;1.70;;
78925;SDS011;68321;51.276;7.208;2023-03-23T08:03:13;4.45;;;1.65;;
78925;SDS011;68321;51.276;7.208;2023-03-23T08:05:39;3.38;;;1.83;;
78925;SDS011;68321;51.276;7.208;2023-03-23T08:08:07;5.63;;;1.80;;
78925;SDS011;68321;51.276;7.208;2023-03-23T08:10:33;3.53;;;1.85;;
78925;SDS011;68321;51.276;7.208;2023-03-23T08:12:58;3.53;;;2.10;;
78925;SDS011;68321;51.276;7.208;2023-03-23T08:15:24;4.30;;;1.73;;
78925;SDS011;68321;51.276;7.208;2023-03-23T08:17:51;5.60;;;1.70;;
78925;SDS011;68321;51.276;7.208;2023-03-23T08:20:17;4.70;;;1.70;;
78925;SDS011;68321;51.276;7.208;2023-03-23T08:22:44;6.40;;;1.90;;
78925;SDS011;68321;51.276;7.208;2023-03-23T08:25:12;5.00;;;2.17;;
78925;SDS011;68321;51.276;7.208;2023-03-23T08:27:39;3.97;;;1.90;;
78925;SDS011;68321;51.276;7.208;2023-03-23T08:30:09;6.13;;;1.65;;
78925;SDS011;68321;51.276;7.208;2023-03-23T08:32:36;3.28;;;1.75;;
78925;SDS011;68321;51.276;7.208;2023-03-23T08:35:02;4.38;;;1.63;;
78925;SDS011;68321;51.276;7.208;2023-03-23T08:37:28;3.88;;;2.00;;
78925;SDS011;68321;51.276;7.208;2023-03-23T08:39:54;3.00;;;1.23;;
78925;SDS011;68321;51.276;7.208;2023-03-23T08:42:20;2.47;;;1.48;;
78925;SDS011;68321;51.276;7.208;2023-03-23T08:44:45;6.00;;;2.05;;
78925;SDS011;68321;51.276;7.208;2023-03-23T08:47:11;6.85;;;1.65;;
78925;SDS011;68321;51.276;7.208;2023-03-23T08:49:36;3.22;;;1.38;;
78925;SDS011;68321;51.276;7.208;2023-03-23T08:52:02;3.38;;;1.38;;
78925;SDS011;68321;51.276;7.208;2023-03-23T08:54:28;3.70;;;1.70;;
78925;SDS011;68321;51.276;7.208;2023-03-23T08:56:55;4.22;;;1.75;;
78925;SDS011;68321;51.276;7.208;2023-03-23T08:59:20;3.22;;;1.85;;
78925;SDS011;68321;51.276;7.208;2023-03-23T09:01:46;3.92;;;1.55;;
78925;SDS011;68321;51.276;7.208;2023-03-23T09:04:12;4.57;;;2.22;;
78925;SDS011;68321;51.276;7.208;2023-03-23T09:06:39;3.92;;;1.80;;
78925;SDS011;68321;51.276;7.208;2023-03-23T09:09:05;4.50;;;1.40;;
78925;SDS011;68321;51.276;7.208;2023-03-23T09:11:34;6.70;;;1.70;;
78925;SDS011;68321;51.276;7.208;2023-03-23T09:14:00;7.80;;;1.92;;
78925;SDS011;68321;51.276;7.208;2023-03-23T09:16:27;3.70;;;1.70;;
78925;SDS011;68321;51.276;7.208;2023-03-23T09:18:53;6.93;;;1.90;;
78925;SDS011;68321;51.276;7.208;2023-03-23T09:21:18;5.25;;;1.92;;
78925;SDS011;68321;51.276;7.208;2023-03-23T09:23:45;4.38;;;1.52;;
78925;SDS011;68321;51.276;7.208;2023-03-23T09:26:10;3.40;;;1.73;;
78925;SDS011;68321;51.276;7.208;2023-03-23T09:28:36;5.17;;;1.77;;
78925;SDS011;68321;51.276;7.208;2023-03-23T09:31:01;6.38;;;2.20;;
78925;SDS011;68321;51.276;7.208;2023-03-23T09:33:26;4.13;;;1.20;;
78925;SDS011;68321;51.276;7.208;2023-03-23T09:35:53;7.07;;;2.45;;
78925;SDS011;68321;51.276;7.208;2023-03-23T09:38:19;3.85;;;1.58;;
78925;SDS011;68321;51.276;7.208;2023-03-23T09:41:22;6.28;;;1.88;;
78925;SDS011;68321;51.276;7.208;2023-03-23T09:44:02;8.63;;;2.17;;
78925;SDS011;68321;51.276;7.208;2023-03-23T09:46:33;3.35;;;1.05;;
78925;SDS011;68321;51.276;7.208;2023-03-23T09:49:07;4.18;;;1.88;;
78925;SDS011;68321;51.276;7.208;2023-03-23T09:51:54;6.68;;;1.65;;
78925;SDS011;68321;51.276;7.208;2023-03-23T09:54:24;5.93;;;2.00;;
78925;SDS011;68321;51.276;7.208;2023-03-23T09:56:52;7.68;;;2.03;;
78925;SDS011;68321;51.276;7.208;2023-03-23T09:59:26;5.43;;;2.85;;
78925;SDS011;68321;51.276;7.208;2023-03-23T10:01:57;8.43;;;1.60;;
78925;SDS011;68321;51.276;7.208;2023-03-23T10:04:50;2.22;;;1.27;;
78925;SDS011;68321;51.276;7.208;2023-03-23T10:09:43;4.78;;;1.65;;
78925;SDS011;68321;51.276;7.208;2023-03-23T10:13:13;5.80;;;1.52;;
78925;SDS011;68321;51.276;7.208;2023-03-23T10:18:02;6.40;;;1.67;;
78925;SDS011;68321;51.276;7.208;2023-03-23T10:25:41;5.32;;;1.63;;
78925;SDS011;68321;51.276;7.208;2023-03-23T10:28:15;13.45;;;4.70;;
78925;SDS011;68321;51.276;7.208;2023-03-23T10:30:45;6.18;;;2.10;;
78925;SDS011;68321;51.276;7.208;2023-03-23T10:38:39;8.13;;;1.60;;
78925;SDS011;68321;51.276;7.208;2023-03-23T10:41:11;5.00;;;1.23;;
78925;SDS011;68321;51.276;7.208;2023-03-23T10:43:39;4.38;;;1.92;;
78925;SDS011;68321;51.276;7.208;2023-03-23T10:46:11;2.05;;;0.82;;
78925;SDS011;68321;51.276;7.208;2023-03-23T10:51:15;2.65;;;1.13;;
78925;SDS011;68321;51.276;7.208;2023-03-23T10:53:44;2.95;;;1.63;;
78925;SDS011;68321;51.276;7.208;2023-03-23T10:56:20;2.92;;;0.93;;
78925;SDS011;68321;51.276;7.208;2023-03-23T10:58:48;2.20;;;0.90;;
78925;SDS011;68321;51.276;7.208;2023-03-23T11:01:14;4.03;;;1.65;;
78925;SDS011;68321;51.276;7.208;2023-03-23T11:03:45;1.02;;;0.75;;
78925;SDS011;68321;51.276;7.208;2023-03-23T11:06:23;3.50;;;1.30;;
78925;SDS011;68321;51.276;7.208;2023-03-23T11:11:21;3.72;;;1.27;;
78925;SDS011;68321;51.276;7.208;2023-03-23T11:13:56;2.20;;;1.20;;
78925;SDS011;68321;51.276;7.208;2023-03-23T11:16:24;2.72;;;1.33;;
78925;SDS011;68321;51.276;7.208;2023-03-23T11:18:51;3.42;;;1.60;;
78925;SDS011;68321;51.276;7.208;2023-03-23T11:21:17;3.88;;;1.65;;
78925;SDS011;68321;51.276;7.208;2023-03-23T11:23:49;4.60;;;1.67;;
78925;SDS011;68321;51.276;7.208;2023-03-23T11:31:22;2.33;;;1.13;;
78925;SDS011;68321;51.276;7.208;2023-03-23T11:33:51;2.38;;;1.02;;
78925;SDS011;68321;51.276;7.208;2023-03-23T11:36:21;2.15;;;1.20;;
78925;SDS011;68321;51.276;7.208;2023-03-23T11:38:54;9.77;;;4.40;;
78925;SDS011;68321;51.276;7.208;2023-03-23T11:41:22;2.97;;;1.33;;
78925;SDS011;68321;51.276;7.208;2023-03-23T11:43:50;3.53;;;1.80;;
78925;SDS011;68321;51.276;7.208;2023-03-23T11:51:46;3.67;;;1.55;;
78925;SDS011;68321;51.276;7.208;2023-03-23T11:54:33;3.13;;;1.63;;
78925;SDS011;68321;51.276;7.208;2023-03-23T11:57:06;2.45;;;1.42;;
78925;SDS011;68321;51.276;7.208;2023-03-23T11:59:33;2.63;;;1.60;;
78925;SDS011;68321;51.276;7.208;2023-03-23T12:04:50;5.38;;;1.77;;
78925;SDS011;68321;51.276;7.208;2023-03-23T12:10:28;12.73;;;6.28;;
78925;SDS011;68321;51.276;7.208;2023-03-23T12:15:50;5.82;;;1.98;;
78925;SDS011;68321;51.276;7.208;2023-03-23T12:21:55;5.00;;;2.28;;
78925;SDS011;68321;51.276;7.208;2023-03-23T12:27:06;3.63;;;2.22;;
78925;SDS011;68321;51.276;7.208;2023-03-23T12:37:57;10.45;;;6.57;;
78925;SDS011;68321;51.276;7.208;2023-03-23T12:48:33;5.68;;;3.35;;
78925;SDS011;68321;51.276;7.208;2023-03-23T12:59:21;5.53;;;3.28;;
78925;SDS011;68321;51.276;7.208;2023-03-23T13:04:39;4.18;;;2.75;;
78925;SDS011;68321;51.276;7.208;2023-03-23T13:07:09;5.88;;;2.70;;
78925;SDS011;68321;51.276;7.208;2023-03-23T13:09:48;3.92;;;2.42;;
78925;SDS011;68321;51.276;7.208;2023-03-23T13:12:18;4.55;;;2.58;;
78925;SDS011;68321;51.276;7.208;2023-03-23T13:15:01;4.13;;;2.83;;
78925;SDS011;68321;51.276;7.208;2023-03-23T13:17:44;5.10;;;2.78;;
78925;SDS011;68321;51.276;7.208;2023-03-23T13:28:28;5.90;;;3.90;;
78925;SDS011;68321;51.276;7.208;2023-03-23T13:33:36;5.45;;;4.05;;
78925;SDS011;68321;51.276;7.208;2023-03-23T13:36:03;7.80;;;4.60;;
78925;SDS011;68321;51.276;7.208;2023-03-23T13:38:34;7.60;;;4.75;;
78925;SDS011;68321;51.276;7.208;2023-03-23T13:41:05;6.72;;;4.43;;
78925;SDS011;68321;51.276;7.208;2023-03-23T13:43:33;6.80;;;4.47;;
78925;SDS011;68321;51.276;7.208;2023-03-23T13:54:22;9.57;;;5.85;;
78925;SDS011;68321;51.276;7.208;2023-03-23T13:59:35;9.07;;;5.50;;
78925;SDS011;68321;51.276;7.208;2023-03-23T14:07:54;7.82;;;5.72;;
78925;SDS011;68321;51.276;7.208;2023-03-23T14:10:21;11.55;;;5.55;;
78925;SDS011;68321;51.276;7.208;2023-03-23T14:12:48;8.45;;;4.95;;
78925;SDS011;68321;51.276;7.208;2023-03-23T14:15:15;6.10;;;4.20;;
78925;SDS011;68321;51.276;7.208;2023-03-23T14:17:42;7.00;;;5.53;;
78925;SDS011;68321;51.276;7.208;2023-03-23T14:20:09;10.10;;;5.47;;
78925;SDS011;68321;51.276;7.208;2023-03-23T14:22:45;7.38;;;4.72;;
78925;SDS011;68321;51.276;7.208;2023-03-23T14:27:36;6.70;;;3.88;;
78925;SDS011;68321;51.276;7.208;2023-03-23T14:30:03;6.65;;;3.30;;
78925;SDS011;68321;51.276;7.208;2023-03-23T14:32:32;6.18;;;2.83;;
78925;SDS011;68321;51.276;7.208;2023-03-23T14:34:58;4.88;;;3.13;;
78925;SDS011;68321;51.276;7.208;2023-03-23T14:37:25;3.67;;;2.65;;
78925;SDS011;68321;51.276;7.208;2023-03-23T14:39:51;5.07;;;2.67;;
78925;SDS011;68321;51.276;7.208;2023-03-23T14:42:26;4.20;;;2.15;;
78925;SDS011;68321;51.276;7.208;2023-03-23T14:44:53;6.78;;;2.92;;
78925;SDS011;68321;51.276;7.208;2023-03-23T14:47:20;3.63;;;2.05;;
78925;SDS011;68321;51.276;7.208;2023-03-23T14:49:47;3.92;;;1.92;;
78925;SDS011;68321;51.276;7.208;2023-03-23T14:52:18;6.40;;;2.50;;
78925;SDS011;68321;51.276;7.208;2023-03-23T14:54:44;3.38;;;1.90;;
78925;SDS011;68321;51.276;7.208;2023-03-23T14:57:11;7.22;;;1.90;;
78925;SDS011;68321;51.276;7.208;2023-03-23T14:59:43;4.60;;;1.98;;
78925;SDS011;68321;51.276;7.208;2023-03-23T15:02:11;4.15;;;1.58;;
78925;SDS011;68321;51.276;7.208;2023-03-23T15:04:40;3.60;;;1.38;;
78925;SDS011;68321;51.276;7.208;2023-03-23T15:07:05;5.15;;;2.20;;
78925;SDS011;68321;51.276;7.208;2023-03-23T15:09:31;6.47;;;2.17;;
78925;SDS011;68321;51.276;7.208;2023-03-23T15:11:59;3.85;;;1.73;;
78925;SDS011;68321;51.276;7.208;2023-03-23T15:14:41;3.90;;;1.52;;
78925;SDS011;68321;51.276;7.208;2023-03-23T15:17:21;5.63;;;2.42;;
78925;SDS011;68321;51.276;7.208;2023-03-23T15:19:48;14.25;;;5.22;;
78925;SDS011;68321;51.276;7.208;2023-03-23T15:25:17;6.13;;;1.98;;
78925;SDS011;68321;51.276;7.208;2023-03-23T15:27:49;6.15;;;1.80;;
78925;SDS011;68321;51.276;7.208;2023-03-23T15:32:47;4.53;;;2.10;;
78925;SDS011;68321;51.276;7.208;2023-03-23T15:35:20;3.50;;;1.80;;
78925;SDS011;68321;51.276;7.208;2023-03-23T15:38:03;6.43;;;2.70;;
78925;SDS011;68321;51.276;7.208;2023-03-23T15:40:34;5.35;;;2.47;;
78925;SDS011;68321;51.276;7.208;2023-03-23T15:43:14;5.40;;;2.20;;
78925;SDS011;68321;51.276;7.208;2023-03-23T15:45:54;5.38;;;2.45;;
78925;SDS011;68321;51.276;7.208;2023-03-23T15:48:23;3.53;;;1.75;;
78925;SDS011;68321;51.276;7.208;2023-03-23T15:50:49;4.22;;;1.98;;
78925;SDS011;68321;51.276;7.208;2023-03-23T15:53:57;5.70;;;2.50;;
78925;SDS011;68321;51.276;7.208;2023-03-23T15:56:05;5.43;;;2.03;;
78925;SDS011;68321;51.276;7.208;2023-03-23T15:58:32;7.82;;;2.53;;
78925;SDS011;68321;51.276;7.208;2023-03-23T16:00:59;5.53;;;2.22;;
78925;SDS011;68321;51.276;7.208;2023-03-23T16:03:37;6.28;;;2.05;;
78925;SDS011;68321;51.276;7.208;2023-03-23T16:06:04;4.95;;;2.70;;
78925;SDS011;68321;51.276;7.208;2023-03-23T16:08:30;7.07;;;2.97;;
78925;SDS011;68321;51.276;7.208;2023-03-23T16:10:56;4.88;;;2.78;;
78925;SDS011;68321;51.276;7.208;2023-03-23T16:13:21;6.72;;;3.10;;
78925;SDS011;68321;51.276;7.208;2023-03-23T16:15:47;6.68;;;2.85;;
78925;SDS011;68321;51.276;7.208;2023-03-23T16:18:17;5.50;;;2.80;;
78925;SDS011;68321;51.276;7.208;2023-03-23T16:20:45;6.78;;;3.05;;
78925;SDS011;68321;51.276;7.208;2023-03-23T16:23:11;6.35;;;2.72;;
78925;SDS011;68321;51.276;7.208;2023-03-23T16:25:37;4.83;;;2.50;;
78925;SDS011;68321;51.276;7.208;2023-03-23T16:28:02;6.90;;;2.90;;
78925;SDS011;68321;51.276;7.208;2023-03-23T16:30:28;6.30;;;3.00;;
78925;SDS011;68321;51.276;7.208;2023-03-23T16:32:56;8.82;;;2.75;;
78925;SDS011;68321;51.276;7.208;2023-03-23T16:35:21;5.80;;;2.53;;
78925;SDS011;68321;51.276;7.208;2023-03-23T16:37:48;8.17;;;3.10;;
78925;SDS011;68321;51.276;7.208;2023-03-23T16:40:15;6.47;;;3.15;;
78925;SDS011;68321;51.276;7.208;2023-03-23T16:42:42;4.18;;;2.63;;
78925;SDS011;68321;51.276;7.208;2023-03-23T16:45:07;7.05;;;2.85;;
78925;SDS011;68321;51.276;7.208;2023-03-23T16:47:34;9.63;;;3.30;;
78925;SDS011;68321;51.276;7.208;2023-03-23T16:49:59;6.72;;;3.10;;
78925;SDS011;68321;51.276;7.208;2023-03-23T16:52:25;6.17;;;2.57;;
78925;SDS011;68321;51.276;7.208;2023-03-23T16:54:51;6.15;;;2.45;;
78925;SDS011;68321;51.276;7.208;2023-03-23T16:57:16;5.18;;;2.60;;
78925;SDS011;68321;51.276;7.208;2023-03-23T16:59:42;10.70;;;3.00;;
78925;SDS011;68321;51.276;7.208;2023-03-23T17:02:09;6.72;;;2.50;;
78925;SDS011;68321;51.276;7.208;2023-03-23T17:04:35;4.97;;;2.35;;